Time;durP1;ratioP1;P1;durP2;ratioP2;P2;SDS_P1;SDS_P2;PMS_P1;PMS_P2;Temp;Humidity;BMP_temperature;BMP_pressure;BME280_temperature;BME280_humidity;BME280_pressure;Samples;Min_cycle;Max_cycle;Signal;HPM_P1;HPM_P2
2022/06/08 00:00:25;;;;;;;;;2.50;1.00;;;;;19.31;53.78;100804.09;4996646;28;45311;-84
2022/06/08 00:02:56;;;;;;;;;1.25;1.00;;;;;19.28;53.83;100793.75;5013270;28;45472;-84
2022/06/08 00:05:21;;;;;;;;;2.75;2.00;;;;;19.23;53.95;100795.81;4996032;28;45620;-85
2022/06/08 00:07:47;;;;;;;;;1.00;1.00;;;;;19.22;54.42;100782.72;5012687;28;45449;-84
2022/06/08 00:10:12;;;;;;;;;1.00;1.00;;;;;19.19;54.55;100783.78;5012041;28;57092;-85
2022/06/08 00:12:38;;;;;;;;;1.00;1.00;;;;;19.18;54.76;100781.22;4996082;28;45672;-84
2022/06/08 00:15:06;;;;;;;;;2.00;1.00;;;;;19.16;54.79;100786.59;4993319;28;45566;-85
2022/06/08 00:17:31;;;;;;;;;3.25;1.00;;;;;19.14;56.15;100786.69;4994842;28;45418;-85
2022/06/08 00:19:57;;;;;;;;;1.75;1.75;;;;;19.13;56.56;100784.19;5012117;28;50232;-85
2022/06/08 00:22:22;;;;;;;;;3.25;2.00;;;;;19.15;56.39;100791.03;5012030;28;62864;-84
2022/06/08 00:24:47;;;;;;;;;1.00;1.00;;;;;19.18;56.20;100784.72;4995522;28;51575;-85
2022/06/08 00:27:13;;;;;;;;;1.25;1.25;;;;;19.23;57.01;100777.34;5030153;28;62736;-85
2022/06/08 00:29:38;;;;;;;;;1.75;1.75;;;;;19.24;56.89;100778.19;5029625;28;59965;-84
2022/06/08 00:32:04;;;;;;;;;4.00;2.00;;;;;19.22;56.82;100780.94;5027021;28;70193;-84
2022/06/08 00:34:29;;;;;;;;;3.50;1.00;;;;;19.17;57.37;100771.63;5032745;28;45360;-85
2022/06/08 00:36:55;;;;;;;;;4.00;2.00;;;;;19.11;57.18;100773.72;5030993;28;51791;-84
2022/06/08 00:39:20;;;;;;;;;3.50;1.00;;;;;19.03;57.08;100764.59;5036987;28;45518;-85
2022/06/08 00:41:53;;;;;;;;;1.00;1.00;;;;;18.99;57.61;100773.66;5035164;28;67370;-84
2022/06/08 00:44:24;;;;;;;;;2.50;1.25;;;;;18.95;57.18;100762.47;5033452;28;45526;-84
2022/06/08 00:46:51;;;;;;;;;2.00;1.00;;;;;18.88;57.01;100761.97;5029849;28;45347;-84
2022/06/08 00:49:22;;;;;;;;;3.75;1.00;;;;;18.83;57.15;100756.16;5032535;28;52527;-84
2022/06/08 00:51:48;;;;;;;;;1.00;1.00;;;;;18.77;57.18;100753.88;5021319;28;45443;-85
2022/06/08 00:54:20;;;;;;;;;1.00;1.00;;;;;18.69;58.12;100751.72;5038046;28;61895;-84
2022/06/08 00:56:50;;;;;;;;;1.00;1.00;;;;;18.69;58.43;100756.16;5054274;28;45605;-85
2022/06/08 00:59:15;;;;;;;;;1.00;0.00;;;;;18.66;58.42;100745.78;5035187;28;45450;-84
2022/06/08 01:01:41;;;;;;;;;3.25;2.00;;;;;18.66;58.65;100740.53;5038399;28;54525;-85
2022/06/08 01:04:10;;;;;;;;;1.00;1.00;;;;;18.63;58.56;100743.34;5036188;28;45325;-85
2022/06/08 01:06:36;;;;;;;;;4.50;1.00;;;;;18.58;58.32;100744.47;5036290;28;45332;-85
2022/06/08 01:09:02;;;;;;;;;1.00;1.00;;;;;18.55;58.98;100743.81;5033605;28;45518;-84
2022/06/08 01:11:40;;;;;;;;;5.75;2.00;;;;;18.51;59.53;100743.16;5029520;28;46394;-84
2022/06/08 01:14:10;;;;;;;;;3.00;1.00;;;;;18.47;58.95;100736.41;5029935;28;45530;-84
2022/06/08 01:16:35;;;;;;;;;1.00;1.00;;;;;18.44;59.01;100733.09;5037997;28;45638;-84
2022/06/08 01:19:02;;;;;;;;;3.00;2.00;;;;;18.42;59.25;100727.91;5036048;28;47524;-84
2022/06/08 01:21:27;;;;;;;;;1.25;1.25;;;;;18.42;58.90;100733.19;5036393;28;45742;-85
2022/06/08 01:24:00;;;;;;;;;5.25;1.25;;;;;18.44;58.61;100738.38;5036859;28;45432;-84
2022/06/08 01:26:40;;;;;;;;;3.00;1.75;;;;;18.43;59.72;100737.53;5031373;28;45490;-85
2022/06/08 01:29:09;;;;;;;;;2.50;2.00;;;;;18.44;59.08;100726.03;5031257;28;45554;-84
2022/06/08 01:31:55;;;;;;;;;1.00;1.00;;;;;18.44;59.68;100719.94;5031432;28;47245;-84
2022/06/08 01:34:33;;;;;;;;;3.25;2.00;;;;;18.42;58.95;100729.72;4975362;28;45463;-84
2022/06/08 01:37:17;;;;;;;;;2.00;2.00;;;;;18.36;60.24;100729.16;4992058;28;45501;-85
2022/06/08 01:39:55;;;;;;;;;3.00;1.00;;;;;18.37;59.86;100719.47;4959440;28;45389;-84
2022/06/08 01:42:41;;;;;;;;;1.50;1.50;;;;;18.32;59.86;100724.19;4956916;28;46067;-84
2022/06/08 01:45:30;;;;;;;;;6.00;1.00;;;;;18.27;59.46;100731.50;4959644;28;45794;-84
2022/06/08 01:48:10;;;;;;;;;3.00;2.00;;;;;18.22;59.82;100739.72;4978666;28;45470;-84
2022/06/08 01:50:40;;;;;;;;;3.00;0.00;;;;;18.18;60.33;100746.09;4974249;28;45591;-84
2022/06/08 01:53:18;;;;;;;;;1.00;1.00;;;;;18.18;59.60;100735.53;4991096;28;46343;-84
2022/06/08 01:55:53;;;;;;;;;5.50;2.00;;;;;18.18;59.93;100731.16;4974900;28;45501;-84
2022/06/08 01:58:28;;;;;;;;;2.75;2.00;;;;;18.15;59.93;100725.22;4975269;28;45440;-84
2022/06/08 02:01:06;;;;;;;;;4.50;1.75;;;;;18.10;60.42;100722.00;4975286;28;45539;-83
2022/06/08 02:03:36;;;;;;;;;3.00;2.00;;;;;18.04;60.65;100725.03;4975112;28;46458;-84
2022/06/08 02:06:15;;;;;;;;;1.00;1.00;;;;;18.01;60.78;100715.50;4992191;28;45371;-84
2022/06/08 02:08:52;;;;;;;;;2.00;1.00;;;;;17.98;60.85;100711.28;4991643;28;45371;-83
2022/06/08 02:11:22;;;;;;;;;3.75;2.00;;;;;17.94;61.46;100709.78;5001055;28;45808;-84
2022/06/08 02:13:58;;;;;;;;;2.50;1.50;;;;;17.88;62.42;100710.13;5030803;28;46414;-84
2022/06/08 02:16:40;;;;;;;;;1.75;1.00;;;;;17.85;62.15;100710.31;5035244;28;45412;-84
2022/06/08 02:19:10;;;;;;;;;2.75;2.00;;;;;17.77;62.93;100702.00;5034704;28;45428;-85
2022/06/08 02:21:53;;;;;;;;;5.00;3.75;;;;;17.75;62.73;100707.34;5033625;28;45317;-84
2022/06/08 02:24:26;;;;;;;;;4.00;2.25;;;;;17.68;63.12;100715.69;5033028;28;45509;-84
2022/06/08 02:27:02;;;;;;;;;5.25;2.25;;;;;17.61;64.50;100715.22;5035053;28;45647;-85
2022/06/08 02:29:46;;;;;;;;;1.75;1.75;;;;;17.53;65.22;100726.22;5031687;28;45459;-85
2022/06/08 02:35:12;;;;;;;;;3.00;3.00;;;;;17.32;66.93;100712.50;5030465;28;45573;-84
2022/06/08 02:37:38;;;;;;;;;1.50;1.50;;;;;17.20;67.08;100711.41;5034610;28;45696;-84
2022/06/08 02:40:17;;;;;;;;;4.50;4.00;;;;;17.10;67.03;100704.97;5031862;28;45379;-84
2022/06/08 02:42:49;;;;;;;;;4.50;2.75;;;;;17.04;68.58;100700.06;5033266;28;45515;-84
2022/06/08 02:45:19;;;;;;;;;4.25;2.50;;;;;16.99;68.45;100704.72;5064743;28;46252;-85
2022/06/08 02:47:47;;;;;;;;;4.25;1.00;;;;;16.93;68.28;100708.56;5031736;28;45774;-85
2022/06/08 02:50:20;;;;;;;;;7.00;2.75;;;;;16.90;69.72;100707.88;5028944;28;45368;-85
2022/06/08 02:52:47;;;;;;;;;3.00;2.25;;;;;16.89;68.41;100711.47;5016669;28;45353;-84
2022/06/08 02:55:49;;;;;;;;;3.00;2.00;;;;;16.85;68.50;100709.94;5034174;28;45471;-84
2022/06/08 02:58:48;;;;;;;;;3.00;3.00;;;;;16.73;70.34;100691.22;5022021;28;45445;-85
2022/06/08 03:01:19;;;;;;;;;7.75;2.50;;;;;16.68;70.74;100684.53;4956985;28;45327;-85
2022/06/08 03:03:49;;;;;;;;;6.25;3.25;;;;;16.63;70.60;100685.63;4974934;28;45579;-84
2022/06/08 03:06:21;;;;;;;;;3.25;3.00;;;;;16.52;70.90;100672.25;4962058;28;46911;-84
2022/06/08 03:08:53;;;;;;;;;4.00;3.00;;;;;16.41;71.35;100669.34;4990744;28;45758;-85
2022/06/08 03:11:19;;;;;;;;;4.75;3.00;;;;;16.34;71.91;100666.19;4957709;28;45690;-85
2022/06/08 03:13:50;;;;;;;;;5.00;3.75;;;;;16.30;72.90;100661.22;4954728;28;45380;-85
2022/06/08 03:16:52;;;;;;;;;2.75;2.75;;;;;16.30;72.78;100651.53;4945909;28;46999;-85
2022/06/08 03:19:18;;;;;;;;;2.50;2.00;;;;;16.30;73.13;100645.44;4931681;28;45578;-85
2022/06/08 03:21:44;;;;;;;;;8.00;1.75;;;;;16.28;72.75;100635.03;4916217;28;45523;-85
2022/06/08 03:24:09;;;;;;;;;6.00;2.25;;;;;16.27;73.03;100633.34;4916613;28;45530;-85
2022/06/08 03:26:39;;;;;;;;;1.75;1.75;;;;;16.25;72.71;100635.19;4911684;28;72893;-85
2022/06/08 03:29:05;;;;;;;;;3.00;2.50;;;;;16.19;73.02;100630.28;4910896;28;45490;-85
2022/06/08 03:31:31;;;;;;;;;2.50;2.50;;;;;16.19;72.91;100632.91;4931102;28;66765;-86
2022/06/08 03:33:56;;;;;;;;;2.00;2.00;;;;;16.17;72.97;100629.50;4915547;28;45599;-85
2022/06/08 03:36:21;;;;;;;;;5.75;2.00;;;;;16.16;72.88;100626.03;4933007;28;69989;-85
2022/06/08 03:38:47;;;;;;;;;2.00;2.00;;;;;16.13;72.53;100620.09;4972781;28;46034;-85
2022/06/08 03:41:12;;;;;;;;;4.75;2.25;;;;;16.04;72.88;100622.28;4970088;28;60381;-84
2022/06/08 03:43:38;;;;;;;;;5.00;3.75;;;;;15.99;73.91;100623.47;4965664;28;65770;-85
2022/06/08 03:46:05;;;;;;;;;4.00;3.00;;;;;15.97;74.02;100620.94;4956359;28;70122;-85
2022/06/08 03:48:30;;;;;;;;;4.25;2.75;;;;;15.95;74.46;100629.81;4956019;28;45508;-85
2022/06/08 03:50:58;;;;;;;;;5.75;3.25;;;;;15.94;74.95;100628.13;4985600;28;61601;-87
2022/06/08 03:53:31;;;;;;;;;4.00;3.00;;;;;15.92;74.38;100622.13;4986365;28;66428;-89
2022/06/08 03:55:57;;;;;;;;;6.00;1.25;;;;;15.89;74.30;100623.09;5030807;28;46149;-85
2022/06/08 03:58:24;;;;;;;;;4.75;3.00;;;;;15.83;75.20;100618.19;5022882;28;45480;-85
2022/06/08 04:00:49;;;;;;;;;4.00;3.00;;;;;15.84;75.32;100612.88;5031803;28;45508;-84
2022/06/08 04:03:16;;;;;;;;;4.00;3.00;;;;;15.85;75.23;100613.72;5034891;28;50893;-85
2022/06/08 04:05:41;;;;;;;;;3.75;3.00;;;;;15.85;75.36;100603.22;5028980;28;46399;-84
2022/06/08 04:08:07;;;;;;;;;4.00;3.00;;;;;15.86;75.26;100595.25;5029497;28;65274;-84
2022/06/08 04:10:32;;;;;;;;;4.00;3.00;;;;;15.90;75.45;100592.44;5022589;28;45637;-84
2022/06/08 04:12:58;;;;;;;;;3.25;2.00;;;;;15.91;75.75;100589.75;5035451;28;45304;-84
2022/06/08 04:15:42;;;;;;;;;5.00;4.00;;;;;15.90;75.45;100582.81;5038073;28;45688;-84
2022/06/08 04:18:13;;;;;;;;;3.75;2.75;;;;;15.92;75.57;100580.97;5037874;28;45452;-85
2022/06/08 04:20:39;;;;;;;;;3.50;2.50;;;;;15.91;75.77;100579.25;5032613;28;45485;-85
2022/06/08 04:23:05;;;;;;;;;3.50;2.00;;;;;15.92;76.12;100573.09;5034009;28;45502;-84
2022/06/08 04:25:31;;;;;;;;;3.75;2.00;;;;;15.95;76.04;100566.81;5036421;28;45502;-84
2022/06/08 04:27:56;;;;;;;;;3.75;2.00;;;;;15.96;75.93;100563.25;5030836;28;60061;-85
2022/06/08 04:30:22;;;;;;;;;5.00;3.75;;;;;16.01;75.88;100559.47;5033986;28;45600;-85
2022/06/08 04:32:47;;;;;;;;;3.25;3.00;;;;;16.05;75.64;100573.28;5036951;28;45553;-84
2022/06/08 04:35:14;;;;;;;;;4.50;3.50;;;;;16.03;76.04;100565.47;5034807;28;46131;-85
2022/06/08 04:37:39;;;;;;;;;3.00;3.00;;;;;16.07;75.74;100571.41;5036785;28;45658;-85
2022/06/08 04:40:07;;;;;;;;;4.00;2.50;;;;;16.05;75.38;100571.47;5033711;28;45486;-85
2022/06/08 04:42:33;;;;;;;;;7.00;3.00;;;;;16.03;75.58;100564.63;5035144;28;45221;-85
2022/06/08 04:44:59;;;;;;;;;2.75;2.75;;;;;16.01;75.57;100558.59;5033997;28;47238;-84
2022/06/08 04:47:24;;;;;;;;;4.50;2.00;;;;;15.99;75.33;100557.81;5033601;28;45510;-86
2022/06/08 04:49:50;;;;;;;;;8.00;3.00;;;;;15.95;75.29;100557.16;5032354;28;45252;-85
2022/06/08 04:52:15;;;;;;;;;5.50;2.75;;;;;15.90;75.29;100553.94;5036727;28;47895;-85
2022/06/08 04:54:40;;;;;;;;;4.50;2.50;;;;;15.87;75.46;100551.47;5034844;28;45411;-85
2022/06/08 04:57:06;;;;;;;;;4.00;2.75;;;;;15.88;75.98;100555.81;5033896;28;45284;-86
2022/06/08 04:59:31;;;;;;;;;3.25;2.00;;;;;15.86;76.61;100553.25;5031639;28;45235;-85
2022/06/08 05:01:56;;;;;;;;;4.50;3.25;;;;;15.87;76.30;100552.31;5026261;28;60465;-85
2022/06/08 05:04:22;;;;;;;;;3.50;2.75;;;;;15.91;76.23;100536.41;5034558;28;55213;-85
2022/06/08 05:06:47;;;;;;;;;4.00;2.50;;;;;15.91;76.25;100541.66;5035542;28;45526;-86
2022/06/08 05:09:13;;;;;;;;;5.00;3.00;;;;;15.90;75.83;100530.31;5033611;28;45421;-86
2022/06/08 05:11:38;;;;;;;;;5.00;3.00;;;;;15.91;75.75;100520.66;5032438;28;45507;-85
2022/06/08 05:14:03;;;;;;;;;2.25;2.00;;;;;15.90;76.15;100529.44;5023651;28;70340;-85
2022/06/08 05:16:29;;;;;;;;;3.50;2.00;;;;;15.91;76.33;100518.03;5023924;28;46294;-85
2022/06/08 05:18:54;;;;;;;;;3.25;3.00;;;;;15.93;76.47;100522.25;5036042;28;45336;-85
2022/06/08 05:21:20;;;;;;;;;4.00;2.00;;;;;15.91;76.46;100524.13;5032786;28;58394;-86
2022/06/08 05:23:45;;;;;;;;;3.00;3.00;;;;;15.93;76.86;100521.41;5032254;28;46257;-85
2022/06/08 05:26:12;;;;;;;;;7.25;2.50;;;;;15.95;76.34;100520.41;5027016;28;45629;-86
2022/06/08 05:28:38;;;;;;;;;2.00;2.00;;;;;15.99;76.15;100518.44;5025521;28;45424;-85
2022/06/08 05:31:04;;;;;;;;;4.00;3.25;;;;;16.00;76.42;100513.13;5035685;28;45424;-85
2022/06/08 05:33:29;;;;;;;;;3.25;2.00;;;;;16.03;76.32;100517.38;5033492;28;45535;-85
2022/06/08 05:35:55;;;;;;;;;4.25;2.75;;;;;16.03;76.44;100520.00;5032429;28;45408;-86
2022/06/08 05:38:21;;;;;;;;;2.25;1.75;;;;;16.04;76.07;100517.25;5032733;28;45464;-85
2022/06/08 05:40:46;;;;;;;;;2.25;1.50;;;;;16.04;76.62;100512.00;5034156;28;45298;-84
2022/06/08 05:43:14;;;;;;;;;3.25;3.25;;;;;16.08;76.18;100511.84;5035599;28;45686;-83
2022/06/08 05:45:40;;;;;;;;;4.00;1.50;;;;;16.08;75.72;100514.47;5035071;28;45548;-84
2022/06/08 05:48:07;;;;;;;;;1.00;1.00;;;;;16.05;75.81;100511.09;5036532;28;45639;-84
2022/06/08 05:50:33;;;;;;;;;2.00;2.00;;;;;16.06;75.96;100514.56;5033941;28;45478;-84
2022/06/08 05:52:59;;;;;;;;;2.00;2.00;;;;;16.03;76.37;100515.59;5029452;28;46398;-83
2022/06/08 05:55:25;;;;;;;;;3.00;1.50;;;;;16.04;76.00;100517.25;5034062;28;45452;-83
2022/06/08 05:57:51;;;;;;;;;4.00;2.00;;;;;15.99;76.10;100514.06;5033585;28;45523;-83
2022/06/08 06:00:20;;;;;;;;;2.00;2.00;;;;;15.97;75.97;100517.69;5032598;28;45400;-83
2022/06/08 06:02:45;;;;;;;;;1.50;1.50;;;;;15.98;76.38;100511.53;5034582;28;46655;-84
2022/06/08 06:05:13;;;;;;;;;1.75;1.00;;;;;15.98;76.67;100514.16;5027587;28;45597;-83
2022/06/08 06:07:39;;;;;;;;;2.00;1.50;;;;;15.99;76.86;100513.19;5017698;28;45360;-83
2022/06/08 06:10:05;;;;;;;;;2.00;2.00;;;;;16.03;76.97;100515.59;5035226;28;45471;-83
2022/06/08 06:12:31;;;;;;;;;2.25;0.50;;;;;16.06;76.71;100519.81;5035399;28;46104;-85
2022/06/08 06:14:58;;;;;;;;;1.00;1.00;;;;;16.06;76.27;100515.44;5031853;28;45404;-84
2022/06/08 06:17:23;;;;;;;;;2.25;1.00;;;;;16.08;76.15;100519.72;5032431;28;45382;-82
2022/06/08 06:19:48;;;;;;;;;1.00;1.00;;;;;16.03;76.17;100526.09;5034955;28;45534;-82
2022/06/08 06:22:14;;;;;;;;;0.75;0.75;;;;;16.02;76.27;100524.38;5034814;28;45445;-82
2022/06/08 06:24:39;;;;;;;;;1.00;0.50;;;;;15.95;76.51;100514.31;5033374;28;45532;-81
2022/06/08 06:27:05;;;;;;;;;1.25;1.25;;;;;15.99;76.75;100524.56;5037119;28;45523;-82
2022/06/08 06:29:30;;;;;;;;;0.50;0.00;;;;;15.97;76.70;100509.81;5034323;28;45596;-82
2022/06/08 06:32:03;;;;;;;;;0.75;0.75;;;;;16.03;76.88;100531.34;5031104;28;57585;-83
2022/06/08 06:34:29;;;;;;;;;1.00;0.00;;;;;16.03;76.77;100528.72;5023173;28;45594;-83
2022/06/08 06:36:55;;;;;;;;;0.00;0.00;;;;;16.05;76.84;100529.47;5033674;28;45610;-82
2022/06/08 06:39:21;;;;;;;;;1.25;1.25;;;;;16.02;76.35;100529.63;5034969;28;45463;-83
2022/06/08 06:41:47;;;;;;;;;1.00;1.00;;;;;16.01;76.59;100530.59;5033892;28;46196;-85
2022/06/08 06:44:14;;;;;;;;;1.00;1.00;;;;;16.01;76.75;100533.22;5031455;28;45840;-83
2022/06/08 06:46:39;;;;;;;;;0.25;0.00;;;;;16.02;76.40;100532.25;5026231;28;45490;-83
2022/06/08 06:49:05;;;;;;;;;0.00;0.00;;;;;16.03;76.69;100533.13;5034965;28;45343;-84
2022/06/08 06:51:31;;;;;;;;;1.00;1.00;;;;;16.04;77.61;100535.66;5032300;28;47934;-85
2022/06/08 06:53:56;;;;;;;;;0.00;0.00;;;;;16.05;76.96;100529.47;5031398;28;45519;-84
2022/06/08 06:56:21;;;;;;;;;2.00;0.00;;;;;16.05;77.05;100532.09;5029341;28;58737;-84
2022/06/08 06:58:48;;;;;;;;;1.25;1.00;;;;;16.06;76.92;100538.19;5034472;28;45357;-82
2022/06/08 07:01:15;;;;;;;;;1.00;1.00;;;;;16.09;77.26;100539.81;5030820;28;45399;-82
2022/06/08 07:03:40;;;;;;;;;0.00;0.00;;;;;16.06;76.61;100531.19;5032344;28;45563;-83
2022/06/08 07:06:05;;;;;;;;;0.00;0.00;;;;;16.05;77.11;100534.72;5035564;28;65082;-82
2022/06/08 07:08:31;;;;;;;;;0.00;0.00;;;;;16.01;77.08;100538.47;5033381;28;64212;-82
2022/06/08 07:13:41;;;;;;;;;1.50;0.00;;;;;15.92;77.37;100543.38;5033937;28;45431;-81
2022/06/08 07:16:06;;;;;;;;;2.00;0.00;;;;;15.91;77.36;100545.13;5034220;28;45325;-82
2022/06/08 07:18:32;;;;;;;;;1.75;0.00;;;;;15.92;77.54;100544.22;5034351;28;45488;-82
2022/06/08 07:20:57;;;;;;;;;0.00;0.00;;;;;15.94;77.53;100549.38;5035775;28;45689;-82
2022/06/08 07:23:22;;;;;;;;;2.00;0.00;;;;;15.90;77.73;100537.31;5032984;28;69073;-83
2022/06/08 07:25:48;;;;;;;;;0.75;0.75;;;;;15.92;77.74;100540.75;5033519;28;45694;-83
2022/06/08 07:28:14;;;;;;;;;1.25;0.00;;;;;15.96;77.76;100544.88;5043036;28;45422;-84
2022/06/08 07:30:39;;;;;;;;;0.00;0.00;;;;;15.99;78.21;100537.69;5048718;28;48020;-83
2022/06/08 07:33:05;;;;;;;;;0.25;0.25;;;;;16.05;78.23;100547.84;5034739;28;45373;-83
2022/06/08 07:35:30;;;;;;;;;1.00;1.00;;;;;16.12;77.78;100548.38;5037338;28;45501;-82
2022/06/08 07:37:55;;;;;;;;;0.00;0.00;;;;;16.16;77.90;100547.28;5038859;28;66940;-85
2022/06/08 07:40:21;;;;;;;;;1.50;0.25;;;;;16.26;78.59;100548.44;5032767;28;63293;-82
2022/06/08 07:42:46;;;;;;;;;1.00;0.00;;;;;16.33;77.82;100551.56;5036833;28;45437;-83
2022/06/08 07:45:12;;;;;;;;;0.00;0.00;;;;;16.36;77.72;100540.03;5054565;28;65682;-83
2022/06/08 07:49:36;;;;;;;;;0.00;0.00;;;;;16.40;77.19;100539.81;5028597;28;45496;-83
2022/06/08 07:50:25;;;;;;;;;0.75;0.00;;;;;16.46;77.28;100543.84;5033091;28;45798;-81
2022/06/08 07:52:51;;;;;;;;;0.00;0.00;;;;;16.50;77.27;100544.53;5034603;28;45387;-83
2022/06/08 07:55:16;;;;;;;;;0.00;0.00;;;;;16.50;76.96;100548.00;5039761;28;45862;-84
2022/06/08 07:57:43;;;;;;;;;0.00;0.00;;;;;16.53;76.86;100533.81;5026947;28;45273;-83
2022/06/08 08:00:10;;;;;;;;;0.00;0.00;;;;;16.54;76.92;100539.00;5034961;28;48182;-84
2022/06/08 08:02:36;;;;;;;;;0.00;0.00;;;;;16.58;77.01;100540.50;5015871;28;45345;-83
2022/06/08 08:05:01;;;;;;;;;0.25;0.25;;;;;16.69;77.87;100534.66;5019934;28;45864;-83
2022/06/08 08:07:26;;;;;;;;;0.00;0.00;;;;;16.80;77.24;100537.50;5019034;28;45482;-83
2022/06/08 08:09:52;;;;;;;;;0.00;0.00;;;;;16.88;77.12;100539.72;5031943;28;65238;-84
2022/06/08 08:12:17;;;;;;;;;0.50;0.00;;;;;16.95;77.07;100530.53;5018656;28;58876;-82
2022/06/08 08:14:42;;;;;;;;;0.00;0.00;;;;;17.03;76.93;100533.56;5025934;28;60307;-83
2022/06/08 08:17:08;;;;;;;;;0.00;0.00;;;;;17.18;76.94;100536.22;5025605;28;45407;-85
2022/06/08 08:19:38;;;;;;;;;0.00;0.00;;;;;17.29;76.96;100531.19;5029870;28;45428;-85
2022/06/08 08:22:03;;;;;;;;;0.00;0.00;;;;;17.44;76.90;100533.78;5018821;28;45593;-85
2022/06/08 08:24:31;;;;;;;;;1.00;1.00;;;;;17.61;77.22;100526.56;5029870;28;45397;-83
2022/06/08 08:26:56;;;;;;;;;0.00;0.00;;;;;17.76;75.54;100522.13;5029519;28;45407;-82
2022/06/08 08:29:21;;;;;;;;;0.00;0.00;;;;;17.85;75.71;100522.53;5023508;28;45305;-83
2022/06/08 08:31:47;;;;;;;;;0.00;0.00;;;;;17.95;75.40;100527.13;5024984;28;45425;-83
2022/06/08 08:34:13;;;;;;;;;0.50;0.50;;;;;18.00;74.65;100532.09;5038686;28;45474;-82
2022/06/08 08:36:39;;;;;;;;;1.75;0.25;;;;;18.02;74.79;100526.75;5030791;28;45726;-83
2022/06/08 08:39:05;;;;;;;;;1.00;0.00;;;;;18.09;75.12;100521.00;5039104;28;46383;-83
2022/06/08 08:44:28;;;;;;;;;1.00;0.75;;;;;18.17;74.72;100531.88;5022692;28;45495;-82
2022/06/08 08:47:02;;;;;;;;;0.00;0.00;;;;;18.24;75.04;100536.72;5019620;28;45494;-83
2022/06/08 08:49:30;;;;;;;;;0.00;0.00;;;;;18.26;74.36;100535.72;5017824;28;45619;-83
2022/06/08 08:52:03;;;;;;;;;0.00;0.00;;;;;18.32;74.66;100537.09;5031486;28;45490;-83
2022/06/08 08:54:39;;;;;;;;;0.00;0.00;;;;;18.30;73.98;100549.53;5016058;28;45542;-83
2022/06/08 08:57:23;;;;;;;;;1.25;0.75;;;;;18.29;74.05;100553.09;5002859;28;45403;-83
2022/06/08 08:59:49;;;;;;;;;2.00;0.00;;;;;18.24;73.94;100555.19;5004893;28;45479;-82
2022/06/08 09:03:14;;;;;;;;;0.25;0.00;;;;;18.26;73.94;100546.25;5027103;28;45474;-83
2022/06/08 09:05:11;;;;;;;;;0.00;0.00;;;;;18.40;74.68;100547.16;5034808;28;45498;-83
2022/06/08 09:07:36;;;;;;;;;0.00;0.00;;;;;18.56;73.70;100553.09;5016077;28;46531;-81
2022/06/08 09:10:02;;;;;;;;;1.00;1.00;;;;;18.58;73.48;100552.06;5041865;28;65804;-82
2022/06/08 09:12:27;;;;;;;;;2.00;1.00;;;;;18.62;73.10;100552.69;5031810;28;45393;-82
2022/06/08 09:14:59;;;;;;;;;1.00;1.00;;;;;18.73;73.02;100554.63;5034575;28;67611;-83
2022/06/08 09:17:33;;;;;;;;;0.00;0.00;;;;;18.81;73.15;100549.72;5033489;28;45621;-83
2022/06/08 09:20:01;;;;;;;;;1.00;1.00;;;;;18.91;72.75;100552.63;5018811;28;47040;-84
2022/06/08 09:22:30;;;;;;;;;0.75;0.75;;;;;19.02;72.81;100551.88;5017019;28;45685;-83
2022/06/08 09:25:20;;;;;;;;;1.00;1.00;;;;;19.09;72.32;100547.88;5024861;28;45628;-83
2022/06/08 09:27:52;;;;;;;;;1.00;1.00;;;;;19.15;71.77;100543.03;5016801;28;46877;-84
2022/06/08 09:30:20;;;;;;;;;1.00;1.00;;;;;19.17;72.29;100544.72;5015777;28;46226;-83
2022/06/08 09:32:49;;;;;;;;;1.00;1.00;;;;;19.19;71.74;100542.84;5012043;28;45829;-83
2022/06/08 09:35:29;;;;;;;;;1.00;1.00;;;;;19.14;71.40;100532.59;5037745;28;45506;-83
2022/06/08 09:38:04;;;;;;;;;3.00;1.00;;;;;19.19;71.74;100538.41;5049663;28;45427;-84
2022/06/08 09:40:47;;;;;;;;;2.00;1.00;;;;;19.30;71.87;100535.03;5019469;28;46166;-84
2022/06/08 09:44:04;;;;;;;;;1.50;1.50;;;;;19.46;71.56;100526.88;5004759;28;45687;-85
2022/06/08 09:52:59;;;;;;;;;1.00;1.00;;;;;20.08;70.03;100532.19;4930657;28;45842;-86
2022/06/08 09:55:49;;;;;;;;;1.25;1.00;;;;;20.33;69.35;100526.91;4960205;28;45757;-86
2022/06/08 09:58:30;;;;;;;;;1.00;1.00;;;;;20.60;69.68;100530.19;4972752;28;45405;-88
2022/06/08 10:01:24;;;;;;;;;1.00;1.00;;;;;20.79;68.06;100534.13;4972249;28;45545;-88
2022/06/08 10:03:50;;;;;;;;;3.00;1.00;;;;;20.78;66.68;100524.47;4972038;28;46266;-86
2022/06/08 10:06:30;;;;;;;;;1.00;1.00;;;;;20.57;66.07;100522.44;4975247;28;45511;-88
2022/06/08 10:09:16;;;;;;;;;1.75;1.75;;;;;20.23;68.59;100524.09;4975418;28;45438;-86
2022/06/08 10:11:52;;;;;;;;;2.00;2.00;;;;;19.94;70.15;100531.50;4973902;28;45444;-84
2022/06/08 10:14:48;;;;;;;;;1.00;1.00;;;;;19.63;70.69;100536.25;4957124;28;46520;-86
2022/06/08 10:17:31;;;;;;;;;3.00;3.00;;;;;19.37;70.89;100538.06;4955825;28;45753;-89
2022/06/08 10:20:11;;;;;;;;;0.00;0.00;;;;;19.12;70.41;100545.88;4955247;28;45554;-94
2022/06/08 10:22:42;;;;;;;;;1.00;1.00;;;;;18.87;71.72;100545.81;5015991;28;45510;-91
2022/06/08 10:25:24;;;;;;;;;3.00;2.00;;;;;18.63;72.32;100546.50;5034235;28;47135;-93
2022/06/08 10:28:05;;;;;;;;;3.00;2.00;;;;;18.44;72.90;100541.56;5018838;28;45557;-84
2022/06/08 10:30:35;;;;;;;;;3.00;1.00;;;;;18.31;73.25;100538.91;5033871;28;46465;-85
2022/06/08 10:33:05;;;;;;;;;2.75;2.50;;;;;18.27;74.28;100544.44;5046094;28;45375;-87
2022/06/08 10:35:39;;;;;;;;;3.00;1.25;;;;;18.32;74.27;100548.47;5027033;28;46387;-85
2022/06/08 10:38:17;;;;;;;;;4.50;3.00;;;;;18.51;74.63;100553.41;5056721;28;45516;-87
2022/06/08 10:41:01;;;;;;;;;3.25;3.25;;;;;18.77;74.51;100537.66;5029442;28;45282;-87
2022/06/08 10:43:29;;;;;;;;;2.75;2.75;;;;;18.93;74.30;100535.72;5029942;28;45468;-86
2022/06/08 10:46:04;;;;;;;;;5.75;3.00;;;;;19.05;74.09;100541.13;5031328;28;45372;-88
2022/06/08 10:48:29;;;;;;;;;3.50;3.00;;;;;19.38;74.13;100543.25;5017439;28;45763;-86
2022/06/08 10:51:28;;;;;;;;;3.33;2.67;;;;;19.69;73.74;100546.41;5021616;28;45349;-87
2022/06/08 10:56:38;;;;;;;;;2.75;2.75;;;;;19.75;72.57;100539.88;5030984;28;45562;-88
2022/06/08 10:59:06;;;;;;;;;4.75;3.00;;;;;19.63;71.67;100545.03;5027815;28;45280;-87
2022/06/08 11:01:51;;;;;;;;;3.50;3.50;;;;;19.47;71.54;100547.06;5020806;28;45352;-87
2022/06/08 11:04:29;;;;;;;;;2.25;2.25;;;;;19.41;72.57;100550.09;5030394;28;45434;-86
2022/06/08 11:07:17;;;;;;;;;2.75;2.75;;;;;19.66;71.48;100557.19;5029600;28;46267;-86
2022/06/08 11:09:49;;;;;;;;;2.00;2.00;;;;;19.99;70.61;100545.22;5018799;28;45841;-86
2022/06/08 11:12:14;;;;;;;;;5.00;3.00;;;;;20.36;70.44;100546.03;5017701;28;45463;-86
2022/06/08 11:14:42;;;;;;;;;3.00;3.00;;;;;20.51;67.79;100549.34;5018303;28;45418;-86
2022/06/08 11:17:15;;;;;;;;;3.75;3.75;;;;;20.73;67.09;100545.13;5027142;28;45578;-86
2022/06/08 11:19:41;;;;;;;;;4.25;2.50;;;;;20.81;65.22;100546.25;5034640;28;45705;-88
2022/06/08 11:22:17;;;;;;;;;3.75;2.00;;;;;20.77;65.04;100543.97;5005903;28;45444;-88
2022/06/08 11:24:46;;;;;;;;;2.50;1.00;;;;;20.81;64.05;100545.41;5027520;28;45639;-89
2022/06/08 11:27:14;;;;;;;;;1.50;1.50;;;;;21.02;62.55;100543.81;5040433;28;47457;-90
2022/06/08 11:29:53;;;;;;;;;2.00;2.00;;;;;21.57;62.60;100543.19;5027043;28;45453;-88
2022/06/08 11:32:41;;;;;;;;;4.00;2.00;;;;;21.85;62.74;100539.19;5030501;28;45325;-88
2022/06/08 11:35:30;;;;;;;;;7.50;2.75;;;;;21.95;63.59;100534.84;5039425;28;45489;-87
2022/06/08 11:38:34;;;;;;;;;3.00;2.00;;;;;21.87;60.43;100544.38;5025713;28;46681;-88
2022/06/08 11:41:22;;;;;;;;;6.00;1.00;;;;;21.51;60.39;100548.94;5022465;28;45693;-87
2022/06/08 11:43:51;;;;;;;;;2.50;2.00;;;;;21.16;59.64;100553.34;5029639;28;45483;-87
2022/06/08 11:46:25;;;;;;;;;3.00;2.00;;;;;20.95;60.82;100560.25;5029408;28;45932;-87
2022/06/08 11:48:51;;;;;;;;;1.75;1.75;;;;;20.78;61.44;100559.72;5018343;28;45450;-87
2022/06/08 11:51:36;;;;;;;;;4.25;1.00;;;;;20.75;61.02;100551.19;5036282;28;45640;-87
2022/06/08 11:54:25;;;;;;;;;3.00;2.00;;;;;21.21;61.38;100547.66;5019231;28;45334;-87
2022/06/08 11:57:02;;;;;;;;;1.00;1.00;;;;;21.73;59.24;100546.31;5017099;28;45544;-87